YVG weather

Vermilion Airport
Vermilion, Alberta, Canada

Public forecast

Using degrees Celsius for public forecast. Weather courtesy of forecast.io.

METAR (pilot weather report)

Closest report is Lloydminster Airport, 27.1 nm (50.1 km) E. Retrieved 2019/04/19 18:00 UTC (35 minutes ago):

CYLL 191800Z 30015KT 15SM BKN048 BKN100 BKN250 13/01 A2968 RMK CU5AC2CI1 CI TR SLP066 DENSITY ALT 2800FT

TAF (pilot weather forecast)

Closest forecast is Lloydminster Airport, 27.1 nm (50.1 km) E. Retrieved 2019/04/19 18:42 UTC (0 seconds ago):

TAF CYLL 191738Z 1918/2006 30015G25KT P6SM SCT050 BKN100 BKN240 FM200300 30010KT P6SM FEW060 SCT140 RMK NXT FCST BY 200000Z